createdAt,value
2017-09-24T00:00:22.849Z,10.10
2017-09-24T00:02:52.836Z,10.30
2017-09-24T00:05:20.615Z,10.30
2017-09-24T00:07:49.532Z,10.40
2017-09-24T00:10:17.350Z,10.30
2017-09-24T00:12:48.133Z,9.80
2017-09-24T00:15:17.654Z,9.60
2017-09-24T00:17:45.774Z,9.60
2017-09-24T00:20:14.349Z,10.00
2017-09-24T00:22:42.114Z,10.00
2017-09-24T00:25:10.560Z,10.00
2017-09-24T00:27:38.660Z,10.00
2017-09-24T00:30:07.536Z,10.30
2017-09-24T00:32:35.375Z,10.50
2017-09-24T00:35:04.274Z,10.10
2017-09-24T00:37:34.042Z,10.20
2017-09-24T00:40:01.992Z,10.20
2017-09-24T00:42:29.684Z,10.40
2017-09-24T00:44:57.467Z,10.00
2017-09-24T00:47:25.474Z,9.90
2017-09-24T00:49:53.996Z,9.80
2017-09-24T00:52:21.747Z,9.80
2017-09-24T00:55:11.375Z,9.60
2017-09-24T00:57:39.126Z,9.50
2017-09-24T01:00:06.968Z,9.50
2017-09-24T01:02:34.791Z,9.50
2017-09-24T01:05:04.158Z,9.50
2017-09-24T01:07:31.916Z,9.60
2017-09-24T01:09:59.643Z,10.00
2017-09-24T01:12:27.415Z,10.00
2017-09-24T01:14:55.147Z,9.90
2017-09-24T01:17:23.841Z,9.80
2017-09-24T01:19:51.608Z,9.80
2017-09-24T01:22:20.677Z,9.80
2017-09-24T01:24:49.184Z,9.80
2017-09-24T01:27:16.920Z,9.80
2017-09-24T01:29:44.723Z,9.70
2017-09-24T01:32:12.915Z,9.60
2017-09-24T01:34:44.309Z,9.70
2017-09-24T01:37:13.012Z,9.70
2017-09-24T01:39:40.760Z,9.80
2017-09-24T01:42:08.604Z,9.80
2017-09-24T01:44:36.401Z,10.00
2017-09-24T01:47:09.960Z,10.20
2017-09-24T01:49:38.550Z,10.10
2017-09-24T01:52:06.364Z,10.10
2017-09-24T01:54:34.889Z,10.00
2017-09-24T01:57:02.672Z,10.00
2017-09-24T01:59:31.311Z,10.00
2017-09-24T02:01:59.459Z,10.00
2017-09-24T02:04:28.243Z,10.00
2017-09-24T02:06:57.631Z,10.00
2017-09-24T02:09:25.542Z,10.40
2017-09-24T02:11:53.426Z,10.40
2017-09-24T02:14:22.067Z,10.50
2017-09-24T02:16:51.419Z,10.70
2017-09-24T02:19:19.962Z,10.80
2017-09-24T02:21:49.497Z,10.90
2017-09-24T02:24:18.419Z,10.90
2017-09-24T02:26:48.274Z,10.00
2017-09-24T02:29:17.025Z,9.80
2017-09-24T02:31:44.857Z,9.80
2017-09-24T02:34:12.744Z,9.80
2017-09-24T02:36:40.548Z,10.10
2017-09-24T02:39:08.278Z,10.30
2017-09-24T02:41:37.181Z,10.10
2017-09-24T02:44:05.755Z,10.20
2017-09-24T02:46:33.459Z,10.20
2017-09-24T02:49:01.265Z,10.30
2017-09-24T02:51:30.485Z,9.90
2017-09-24T02:53:59.999Z,10.00
2017-09-24T02:56:28.063Z,9.90
2017-09-24T02:58:55.805Z,9.80
2017-09-24T03:01:23.836Z,9.90
2017-09-24T03:03:51.564Z,10.20
2017-09-24T03:06:20.213Z,10.30
2017-09-24T03:08:47.986Z,9.90
2017-09-24T03:11:17.326Z,9.80
2017-09-24T03:13:45.867Z,9.80
2017-09-24T03:16:14.843Z,9.70
2017-09-24T03:18:43.382Z,9.70
2017-09-24T03:21:11.111Z,9.70
2017-09-24T03:23:38.923Z,9.70
2017-09-24T03:26:06.702Z,10.10
2017-09-24T03:28:34.470Z,9.90
2017-09-24T03:31:02.298Z,9.90
2017-09-24T03:33:30.085Z,10.10
2017-09-24T03:35:57.825Z,10.10
2017-09-24T03:38:25.552Z,9.90
2017-09-24T03:40:54.229Z,9.90
2017-09-24T03:43:23.151Z,10.00
2017-09-24T03:45:52.585Z,9.90
2017-09-24T03:48:21.171Z,9.80
2017-09-24T03:50:49.946Z,9.80
2017-09-24T03:53:17.821Z,9.90
2017-09-24T03:55:45.627Z,10.10
2017-09-24T03:58:14.981Z,10.40
2017-09-24T04:00:42.750Z,10.20
2017-09-24T04:03:10.647Z,10.40
2017-09-24T04:05:38.412Z,10.30
2017-09-24T04:08:06.152Z,10.10
2017-09-24T04:10:33.855Z,10.40
2017-09-24T04:13:01.627Z,10.50
2017-09-24T04:15:30.176Z,10.60
2017-09-24T04:17:58.185Z,10.30
2017-09-24T04:20:25.924Z,10.00
2017-09-24T04:22:53.667Z,10.50
2017-09-24T04:25:21.461Z,10.50
2017-09-24T04:27:49.195Z,10.10
2017-09-24T04:30:18.871Z,9.80
2017-09-24T04:32:47.393Z,9.70
2017-09-24T04:35:15.095Z,9.70
2017-09-24T04:37:44.554Z,9.70
2017-09-24T04:40:22.805Z,9.70
2017-09-24T04:42:51.322Z,9.90
2017-09-24T04:45:19.816Z,9.80
2017-09-24T04:47:47.595Z,9.80
2017-09-24T04:50:15.305Z,9.70
2017-09-24T04:52:42.993Z,9.70
2017-09-24T04:55:11.743Z,9.80
2017-09-24T04:57:39.471Z,9.80
2017-09-24T05:00:07.261Z,9.80
2017-09-24T05:02:34.980Z,9.80
2017-09-24T05:05:02.711Z,10.30
2017-09-24T05:07:30.535Z,10.10
2017-09-24T05:09:58.372Z,10.00
2017-09-24T05:12:26.569Z,9.90
2017-09-24T05:14:54.350Z,10.10
2017-09-24T05:17:22.195Z,10.20
2017-09-24T05:19:49.868Z,10.50
2017-09-24T05:22:17.661Z,10.80
2017-09-24T05:24:45.495Z,10.40
2017-09-24T05:27:14.013Z,10.60
2017-09-24T05:29:41.717Z,10.60
2017-09-24T05:32:09.506Z,10.20
2017-09-24T05:34:38.077Z,10.40
2017-09-24T05:42:49.212Z,10.80
2017-09-24T05:45:17.985Z,10.90
2017-09-24T05:47:46.929Z,10.20
2017-09-24T05:50:15.281Z,10.20
2017-09-24T05:52:43.086Z,10.00
2017-09-24T05:55:12.312Z,10.50
2017-09-24T05:57:40.623Z,10.30
2017-09-24T06:00:08.521Z,10.20
2017-09-24T06:02:39.106Z,10.10
2017-09-24T06:05:12.568Z,10.00
2017-09-24T06:07:41.463Z,9.90
2017-09-24T06:10:12.826Z,9.90
2017-09-24T06:12:42.810Z,9.90
2017-09-24T06:15:11.943Z,10.10
2017-09-24T06:17:40.513Z,10.60
2017-09-24T06:20:08.230Z,10.70
2017-09-24T06:22:36.563Z,10.60
2017-09-24T06:25:05.565Z,10.50
2017-09-24T06:27:34.054Z,10.40
2017-09-24T06:30:01.736Z,10.40
2017-09-24T06:32:29.655Z,10.40
2017-09-24T06:34:57.771Z,10.40
2017-09-24T06:37:32.881Z,10.40
2017-09-24T06:40:04.732Z,10.30
2017-09-24T06:42:40.302Z,10.80
2017-09-24T06:45:13.142Z,10.80
2017-09-24T06:47:40.967Z,11.20
2017-09-24T06:50:09.750Z,11.10
2017-09-24T06:52:40.705Z,11.40
2017-09-24T06:55:17.751Z,11.50
2017-09-24T06:57:47.611Z,11.30
2017-09-24T07:00:21.399Z,10.90
2017-09-24T07:02:51.612Z,10.80
2017-09-24T07:05:20.739Z,10.80
2017-09-24T07:07:51.056Z,10.70
2017-09-24T07:10:19.799Z,10.80
2017-09-24T07:12:50.719Z,11.00
2017-09-24T07:15:20.960Z,11.00
2017-09-24T07:17:57.226Z,11.00
2017-09-24T07:20:33.224Z,10.90
2017-09-24T07:23:03.209Z,10.80
2017-09-24T07:25:32.605Z,11.10
2017-09-24T07:28:01.092Z,11.70
2017-09-24T07:30:29.075Z,11.70
2017-09-24T07:32:56.809Z,11.70
2017-09-24T07:53:55.758Z,11.50
2017-09-24T07:57:04.454Z,11.60
2017-09-24T08:09:36.043Z,12.20
2017-09-24T08:12:03.739Z,11.90
2017-09-24T08:14:31.437Z,11.80
2017-09-24T08:16:59.275Z,11.80
2017-09-24T08:19:27.001Z,11.80
2017-09-24T08:21:54.746Z,11.80
2017-09-24T08:24:22.416Z,11.80
2017-09-24T08:26:50.112Z,11.80
2017-09-24T08:29:17.869Z,11.70
2017-09-24T08:31:45.522Z,11.80
2017-09-24T08:34:13.235Z,11.80
2017-09-24T08:36:41.770Z,11.80
2017-09-24T08:39:09.503Z,11.80
2017-09-24T08:41:37.187Z,11.80
2017-09-24T08:44:04.943Z,11.80
2017-09-24T08:46:32.650Z,11.80
2017-09-24T08:49:00.321Z,11.90
2017-09-24T08:51:28.038Z,12.10
2017-09-24T08:53:55.749Z,12.40
2017-09-24T08:56:23.755Z,12.60
2017-09-24T08:58:51.663Z,12.80
2017-09-24T09:01:19.348Z,13.10
2017-09-24T09:03:47.012Z,13.60
2017-09-24T09:06:14.811Z,13.80
2017-09-24T09:08:42.511Z,13.50
2017-09-24T09:11:10.312Z,13.70
2017-09-24T09:13:38.019Z,13.80
2017-09-24T09:16:05.751Z,14.10
2017-09-24T09:21:36.825Z,14.00
2017-09-24T09:24:04.616Z,13.50
2017-09-24T09:26:32.733Z,13.10
2017-09-24T09:29:00.460Z,13.20
2017-09-24T09:31:28.175Z,13.30
2017-09-24T09:33:55.898Z,13.70
2017-09-24T09:36:23.646Z,13.30
2017-09-24T09:38:51.355Z,13.30
2017-09-24T09:41:19.100Z,13.50
2017-09-24T09:43:46.892Z,13.30
2017-09-24T09:46:26.530Z,13.70
2017-09-24T09:48:54.182Z,14.20
2017-09-24T09:51:23.075Z,14.80
2017-09-24T09:53:50.819Z,15.10
2017-09-24T09:56:18.508Z,14.90
2017-09-24T09:58:48.368Z,14.30
2017-09-24T10:01:16.032Z,14.10
2017-09-24T10:03:43.857Z,14.10
2017-09-24T10:06:11.568Z,14.20
2017-09-24T10:11:52.218Z,14.80
2017-09-24T10:14:20.016Z,14.80
2017-09-24T10:16:49.787Z,15.10
2017-09-24T10:19:17.638Z,14.90
2017-09-24T10:37:00.681Z,15.60
2017-09-24T10:39:31.850Z,15.90
2017-09-24T10:42:19.802Z,16.10
2017-09-24T10:44:51.774Z,16.30
2017-09-24T10:47:22.977Z,16.00
2017-09-24T10:49:54.497Z,16.00
2017-09-24T10:58:23.063Z,15.90
2017-09-24T11:00:57.981Z,15.50
2017-09-24T11:03:53.413Z,15.60
2017-09-24T11:09:18.841Z,15.80
2017-09-24T11:11:53.922Z,16.00
2017-09-24T11:14:29.444Z,16.00
2017-09-24T11:17:02.770Z,16.10
2017-09-24T11:19:30.576Z,16.00
2017-09-24T11:21:58.352Z,15.70
2017-09-24T11:24:26.187Z,15.40
2017-09-24T11:26:54.685Z,14.80
2017-09-24T11:29:23.362Z,14.70
2017-09-24T11:31:51.063Z,14.70
2017-09-24T11:34:23.894Z,14.70
2017-09-24T11:36:51.616Z,14.40
2017-09-24T11:39:22.002Z,14.20
2017-09-24T11:41:49.887Z,14.10
2017-09-24T11:44:17.617Z,14.20
2017-09-24T11:46:47.454Z,14.10
2017-09-24T11:49:18.728Z,13.90
2017-09-24T11:51:47.458Z,13.90
2017-09-24T11:54:15.238Z,14.00
2017-09-24T11:56:43.009Z,14.00
2017-09-24T11:59:10.842Z,14.10
2017-09-24T12:01:38.653Z,14.10
2017-09-24T12:04:07.185Z,14.00
2017-09-24T12:06:34.944Z,13.90
2017-09-24T12:09:09.866Z,13.80
2017-09-24T12:11:43.681Z,13.80
2017-09-24T12:14:26.551Z,13.80
2017-09-24T12:17:05.487Z,13.60
2017-09-24T12:19:49.899Z,13.50
2017-09-24T12:25:27.464Z,13.30
2017-09-24T12:27:59.039Z,13.30
2017-09-24T12:30:33.436Z,13.40
2017-09-24T12:33:03.129Z,13.40
2017-09-24T12:35:34.070Z,13.30
2017-09-24T12:38:04.738Z,13.50
2017-09-24T12:40:35.599Z,13.50
2017-09-24T12:43:06.034Z,13.50
2017-09-24T12:45:37.745Z,13.40
2017-09-24T12:48:08.287Z,13.50
2017-09-24T12:50:40.622Z,13.50
2017-09-24T12:53:09.335Z,13.50
2017-09-24T12:55:37.199Z,13.70
2017-09-24T12:58:05.548Z,13.50
2017-09-24T13:00:34.071Z,13.40
2017-09-24T13:03:01.958Z,13.60
2017-09-24T13:05:34.624Z,13.70
2017-09-24T13:08:05.067Z,13.80
2017-09-24T13:10:34.851Z,13.60
2017-09-24T13:13:14.623Z,13.00
2017-09-24T13:15:44.735Z,13.10
2017-09-24T13:18:16.834Z,13.10
2017-09-24T13:20:46.845Z,13.40
2017-09-24T13:23:16.508Z,13.40
2017-09-24T13:25:46.934Z,13.30
2017-09-24T13:28:23.208Z,13.40
2017-09-24T13:30:51.974Z,13.40
2017-09-24T13:33:38.290Z,13.50
2017-09-24T13:36:09.013Z,13.30
2017-09-24T13:38:38.502Z,13.30
2017-09-24T13:41:07.352Z,13.10
2017-09-24T13:43:37.447Z,13.00
2017-09-24T13:46:10.301Z,13.00
2017-09-24T13:48:43.477Z,13.00
2017-09-24T13:51:21.492Z,13.10
2017-09-24T13:53:52.075Z,13.20
2017-09-24T13:56:27.355Z,13.60
2017-09-24T13:59:05.913Z,13.40
2017-09-24T14:01:44.418Z,13.10
2017-09-24T14:04:15.851Z,13.10
2017-09-24T14:06:49.481Z,13.70
2017-09-24T14:09:20.312Z,13.60
2017-09-24T14:11:52.393Z,13.40
2017-09-24T14:14:21.120Z,13.00
2017-09-24T14:16:51.279Z,13.00
2017-09-24T14:19:22.867Z,13.10
2017-09-24T14:21:55.472Z,13.10
2017-09-24T14:24:28.577Z,13.10
2017-09-24T14:26:56.996Z,13.10
2017-09-24T14:29:28.460Z,13.20
2017-09-24T14:31:57.720Z,13.20
2017-09-24T14:34:25.588Z,13.20
2017-09-24T14:36:53.370Z,13.20
2017-09-24T14:42:19.965Z,13.30
